createdAt,value
2023-02-25T00:00:31.842Z,95.70
2023-02-25T00:02:59.082Z,95.60
2023-02-25T00:05:26.240Z,95.60
2023-02-25T00:07:54.091Z,95.80
2023-02-25T00:10:20.972Z,95.70
2023-02-25T00:12:47.542Z,95.60
2023-02-25T00:15:14.127Z,95.70
2023-02-25T00:17:40.767Z,95.60
2023-02-25T00:20:09.801Z,95.60
2023-02-25T00:22:36.636Z,95.60
2023-02-25T00:25:03.294Z,95.70
2023-02-25T00:27:29.993Z,95.70
2023-02-25T00:29:56.573Z,95.50
2023-02-25T00:32:23.599Z,95.50
2023-02-25T00:34:51.900Z,95.40
2023-02-25T00:37:18.594Z,95.50
2023-02-25T00:39:45.393Z,95.40
2023-02-25T00:42:14.483Z,95.50
2023-02-25T00:44:45.105Z,95.50
2023-02-25T00:47:11.986Z,95.60
2023-02-25T00:49:38.517Z,95.80
2023-02-25T00:52:05.082Z,95.70
2023-02-25T00:54:32.974Z,95.60
2023-02-25T00:56:59.526Z,95.50
2023-02-25T00:59:26.150Z,95.10
2023-02-25T01:01:52.958Z,94.30
2023-02-25T01:04:19.603Z,94.30
2023-02-25T01:06:46.225Z,93.80
2023-02-25T01:09:13.893Z,94.20
2023-02-25T01:11:44.112Z,93.90
2023-02-25T01:14:16.976Z,93.90
2023-02-25T01:16:45.051Z,94.00
2023-02-25T01:19:21.526Z,94.00
2023-02-25T01:21:51.081Z,94.10
2023-02-25T01:24:20.808Z,94.10
2023-02-25T01:26:49.534Z,93.90
2023-02-25T01:29:18.969Z,93.70
2023-02-25T01:31:45.913Z,93.40
2023-02-25T01:34:18.014Z,93.20
2023-02-25T01:36:45.512Z,93.10
2023-02-25T01:39:14.114Z,93.40
2023-02-25T01:41:41.185Z,93.30
2023-02-25T01:44:18.289Z,93.50
2023-02-25T01:46:47.452Z,93.50
2023-02-25T01:49:39.204Z,93.50
2023-02-25T01:52:16.557Z,93.40
2023-02-25T01:54:45.167Z,93.50
2023-02-25T01:57:14.037Z,93.60
2023-02-25T01:59:42.763Z,93.50
2023-02-25T02:02:12.013Z,93.50
2023-02-25T02:04:41.101Z,93.70
2023-02-25T02:07:07.886Z,93.70
2023-02-25T02:09:34.648Z,93.80
2023-02-25T02:12:06.675Z,93.90
2023-02-25T02:14:37.043Z,93.70
2023-02-25T02:17:21.937Z,93.60
2023-02-25T02:19:49.624Z,93.60
2023-02-25T02:22:28.105Z,93.60
2023-02-25T02:25:16.763Z,94.00
2023-02-25T02:28:01.242Z,94.00
2023-02-25T02:30:28.271Z,94.10
2023-02-25T02:33:10.049Z,94.00
2023-02-25T02:35:53.106Z,93.90
2023-02-25T02:38:57.846Z,94.00
2023-02-25T02:41:46.856Z,94.00
2023-02-25T02:44:31.325Z,94.00
2023-02-25T02:47:03.426Z,94.00
2023-02-25T02:49:43.330Z,93.80
2023-02-25T02:52:18.184Z,93.70
2023-02-25T02:54:48.842Z,94.00
2023-02-25T02:57:17.022Z,93.90
2023-02-25T02:59:49.975Z,93.90
2023-02-25T03:02:22.635Z,93.90
2023-02-25T03:04:53.171Z,93.70
2023-02-25T03:07:22.862Z,93.60
2023-02-25T03:09:52.843Z,93.80
2023-02-25T03:12:19.806Z,93.80
2023-02-25T03:14:46.393Z,93.60
2023-02-25T03:17:28.644Z,93.40
2023-02-25T03:20:16.483Z,93.20
2023-02-25T03:22:46.662Z,93.80
2023-02-25T03:25:30.681Z,93.70
2023-02-25T03:28:03.066Z,93.80
2023-02-25T03:30:35.799Z,93.90
2023-02-25T03:33:28.061Z,93.80
2023-02-25T03:35:59.388Z,93.50
2023-02-25T03:38:28.933Z,93.40
2023-02-25T03:40:57.576Z,93.50
2023-02-25T03:43:39.233Z,93.10
2023-02-25T03:46:06.492Z,93.20
2023-02-25T03:48:36.678Z,93.30
2023-02-25T03:51:05.643Z,93.30
2023-02-25T03:53:35.281Z,93.80
2023-02-25T03:56:08.367Z,94.00
2023-02-25T03:58:38.341Z,93.90
2023-02-25T04:01:17.277Z,93.90
2023-02-25T04:03:43.982Z,93.60
2023-02-25T04:06:12.722Z,93.20
2023-02-25T04:08:40.031Z,93.40
2023-02-25T04:11:06.781Z,93.50
2023-02-25T04:13:33.295Z,93.80
2023-02-25T04:15:59.902Z,93.70
2023-02-25T04:18:26.543Z,93.80
2023-02-25T04:20:53.238Z,93.50
2023-02-25T04:23:19.842Z,93.50
2023-02-25T04:25:46.429Z,93.40
2023-02-25T04:28:13.093Z,93.50
2023-02-25T04:30:39.704Z,93.70
2023-02-25T04:33:06.262Z,93.50
2023-02-25T04:35:32.990Z,93.30
2023-02-25T04:37:59.506Z,93.40
2023-02-25T04:40:26.164Z,93.40
2023-02-25T04:42:52.784Z,93.70
2023-02-25T04:45:20.431Z,93.70
2023-02-25T04:47:46.978Z,93.60
2023-02-25T04:50:13.568Z,93.60
2023-02-25T04:52:40.087Z,93.50
2023-02-25T04:55:09.638Z,93.40
2023-02-25T04:57:42.152Z,93.10
2023-02-25T05:00:20.623Z,93.20
2023-02-25T05:02:48.175Z,93.60
2023-02-25T05:05:15.220Z,93.60
2023-02-25T05:07:41.903Z,93.30
2023-02-25T05:10:10.618Z,93.20
2023-02-25T05:12:37.609Z,93.00
2023-02-25T05:15:05.430Z,93.20
2023-02-25T05:17:32.908Z,93.30
2023-02-25T05:19:59.884Z,93.00
2023-02-25T05:22:27.351Z,92.80
2023-02-25T05:24:54.013Z,92.80
2023-02-25T05:27:20.606Z,92.80
2023-02-25T05:29:47.170Z,92.40
2023-02-25T05:32:13.992Z,92.60
2023-02-25T05:34:41.441Z,92.70
2023-02-25T05:37:08.039Z,91.70
2023-02-25T05:39:34.562Z,92.00
2023-02-25T05:42:01.081Z,92.30
2023-02-25T05:44:27.618Z,92.30
2023-02-25T05:46:54.312Z,91.90
2023-02-25T05:49:20.939Z,92.00
2023-02-25T05:51:49.164Z,92.10
2023-02-25T05:54:15.813Z,91.70
2023-02-25T05:56:44.229Z,92.30
2023-02-25T05:59:11.988Z,92.20
2023-02-25T06:01:38.920Z,92.20
2023-02-25T06:04:05.558Z,92.10
2023-02-25T06:06:32.873Z,92.00
2023-02-25T06:08:59.775Z,91.90
2023-02-25T06:11:29.199Z,92.00
2023-02-25T06:13:57.269Z,92.00
2023-02-25T06:16:31.760Z,91.90
2023-02-25T06:19:00.956Z,91.90
2023-02-25T06:21:27.815Z,92.00
2023-02-25T06:23:54.641Z,91.80
2023-02-25T06:26:21.499Z,91.90
2023-02-25T06:28:48.289Z,92.00
2023-02-25T06:31:17.431Z,92.20
2023-02-25T06:33:45.337Z,92.50
2023-02-25T06:36:12.796Z,92.70
2023-02-25T06:38:39.467Z,92.60
2023-02-25T06:41:09.067Z,92.50
2023-02-25T06:43:36.423Z,92.40
2023-02-25T06:46:07.784Z,92.40
2023-02-25T06:48:34.773Z,92.20
2023-02-25T06:51:02.785Z,91.90
2023-02-25T06:53:30.428Z,91.60
2023-02-25T06:55:58.714Z,91.40
2023-02-25T06:58:25.286Z,91.10
2023-02-25T07:00:51.830Z,91.40
2023-02-25T07:03:18.442Z,91.00
2023-02-25T07:05:45.012Z,91.40
2023-02-25T07:08:11.684Z,91.50
2023-02-25T07:10:40.394Z,91.80
2023-02-25T07:13:08.427Z,91.90
2023-02-25T07:15:35.952Z,91.90
2023-02-25T07:18:03.584Z,91.80
2023-02-25T07:20:31.026Z,91.60
2023-02-25T07:22:57.683Z,91.50
2023-02-25T07:25:24.442Z,91.80
2023-02-25T07:27:51.047Z,92.00
2023-02-25T07:30:17.819Z,92.00
2023-02-25T07:32:44.532Z,92.20
2023-02-25T07:35:11.640Z,92.40
2023-02-25T07:37:38.858Z,92.50
2023-02-25T07:40:09.911Z,92.60
2023-02-25T07:42:36.657Z,92.70
2023-02-25T07:45:03.436Z,93.20
2023-02-25T07:47:29.982Z,93.50
2023-02-25T07:49:56.710Z,93.60
2023-02-25T07:52:23.322Z,93.60
2023-02-25T07:54:49.831Z,93.30
2023-02-25T07:57:16.467Z,93.80
2023-02-25T07:59:42.987Z,94.20
2023-02-25T08:02:11.494Z,94.30
2023-02-25T08:04:38.188Z,94.00
2023-02-25T08:07:04.754Z,94.40
2023-02-25T08:09:31.318Z,94.50
2023-02-25T08:11:58.090Z,94.30
2023-02-25T08:14:24.728Z,94.30
2023-02-25T08:16:55.013Z,94.40
2023-02-25T08:19:21.553Z,94.10
2023-02-25T08:21:48.353Z,94.40
2023-02-25T08:24:14.968Z,94.30
2023-02-25T08:26:41.568Z,94.50
2023-02-25T08:29:08.118Z,94.40
2023-02-25T08:31:34.898Z,94.90
2023-02-25T08:34:01.647Z,95.10
2023-02-25T08:36:31.160Z,95.10
2023-02-25T08:38:59.624Z,94.80
2023-02-25T08:41:28.637Z,94.80
2023-02-25T08:43:57.134Z,94.40
2023-02-25T08:46:26.080Z,94.30
2023-02-25T08:48:53.793Z,94.10
2023-02-25T08:51:22.901Z,93.90
2023-02-25T08:53:50.539Z,93.60
2023-02-25T08:56:17.331Z,93.60
2023-02-25T08:58:44.268Z,93.50
2023-02-25T09:01:13.642Z,93.30
2023-02-25T09:03:50.958Z,93.20
2023-02-25T09:06:22.381Z,92.70
2023-02-25T09:08:49.841Z,92.90
2023-02-25T09:11:16.741Z,92.90
2023-02-25T09:13:43.720Z,92.10
2023-02-25T09:16:10.711Z,92.20
2023-02-25T09:18:37.546Z,91.90
2023-02-25T09:21:04.454Z,91.10
2023-02-25T09:23:31.089Z,91.20
2023-02-25T09:26:01.517Z,91.20
2023-02-25T09:28:28.032Z,90.80
2023-02-25T09:30:56.829Z,90.80
2023-02-25T09:33:24.410Z,91.30
2023-02-25T09:35:51.020Z,90.60
2023-02-25T09:38:17.582Z,90.80
2023-02-25T09:40:48.782Z,90.90
2023-02-25T09:43:26.739Z,90.40
2023-02-25T09:45:58.543Z,90.10
2023-02-25T09:48:32.812Z,89.90
2023-02-25T09:51:18.165Z,90.10
2023-02-25T09:53:57.879Z,90.00
2023-02-25T09:56:27.311Z,90.20
2023-02-25T09:58:59.007Z,89.70
2023-02-25T10:01:34.143Z,89.60
2023-02-25T10:04:22.159Z,89.30
2023-02-25T10:06:51.164Z,90.00
2023-02-25T10:09:28.582Z,88.90
2023-02-25T10:12:13.183Z,88.50
2023-02-25T10:14:48.679Z,88.40
2023-02-25T10:17:24.087Z,89.00
2023-02-25T10:20:31.871Z,87.80
2023-02-25T10:23:17.521Z,88.90
2023-02-25T10:26:02.995Z,88.70
2023-02-25T10:28:32.337Z,88.20
2023-02-25T10:31:02.232Z,89.20
2023-02-25T10:33:34.631Z,88.10
2023-02-25T10:36:14.531Z,89.30
2023-02-25T10:38:46.981Z,88.20
2023-02-25T10:41:14.390Z,88.10
2023-02-25T10:43:42.032Z,88.00
2023-02-25T10:46:15.678Z,88.60
2023-02-25T10:48:48.060Z,87.60
2023-02-25T10:51:16.196Z,86.70
2023-02-25T10:53:57.972Z,87.00
2023-02-25T10:56:28.444Z,87.20
2023-02-25T10:59:00.841Z,87.80
2023-02-25T11:01:43.797Z,87.00
2023-02-25T11:04:13.436Z,86.00
2023-02-25T11:06:43.280Z,86.50
2023-02-25T11:09:18.810Z,86.30
2023-02-25T11:12:09.926Z,85.30
2023-02-25T11:14:38.453Z,84.00
2023-02-25T11:17:13.644Z,84.70
2023-02-25T11:19:47.495Z,82.00
2023-02-25T11:22:20.793Z,82.60
2023-02-25T11:24:59.361Z,83.10
2023-02-25T11:27:40.647Z,83.20
2023-02-25T11:30:07.486Z,82.80
2023-02-25T11:32:34.655Z,82.30
2023-02-25T11:35:10.134Z,81.40
2023-02-25T11:37:43.278Z,81.60
2023-02-25T11:40:30.481Z,82.60
2023-02-25T11:43:03.245Z,82.30
2023-02-25T11:45:33.401Z,82.10
2023-02-25T11:48:02.401Z,82.70
2023-02-25T11:50:40.561Z,81.70
2023-02-25T11:53:40.224Z,82.90
2023-02-25T11:56:14.655Z,82.10
2023-02-25T11:58:59.168Z,82.70
2023-02-25T12:01:47.782Z,82.40
2023-02-25T12:04:26.322Z,83.50
2023-02-25T12:07:17.768Z,82.60
2023-02-25T12:10:02.958Z,82.80
2023-02-25T12:12:37.801Z,82.40
2023-02-25T12:15:23.741Z,82.10
2023-02-25T12:18:16.750Z,81.60
2023-02-25T12:20:52.392Z,81.50
2023-02-25T12:23:43.842Z,80.80
2023-02-25T12:26:14.083Z,80.80
2023-02-25T12:29:00.316Z,81.00
2023-02-25T12:31:39.169Z,81.20
2023-02-25T12:34:35.140Z,81.00
2023-02-25T12:37:27.828Z,81.20
2023-02-25T12:40:06.399Z,80.00
2023-02-25T12:42:45.556Z,79.90
2023-02-25T12:45:39.265Z,80.90
2023-02-25T12:48:30.643Z,80.00
2023-02-25T12:51:15.397Z,79.10
2023-02-25T12:54:01.906Z,79.70
2023-02-25T12:56:55.132Z,80.70
2023-02-25T12:59:49.338Z,80.40
2023-02-25T13:02:50.277Z,80.80
2023-02-25T13:05:37.211Z,81.20
2023-02-25T13:08:03.673Z,82.10
2023-02-25T13:10:39.945Z,79.40
2023-02-25T13:13:46.199Z,81.40
2023-02-25T13:16:33.687Z,81.20
2023-02-25T13:19:34.062Z,81.50
2023-02-25T13:22:13.007Z,80.70
2023-02-25T13:24:53.892Z,81.80
2023-02-25T13:27:55.007Z,78.40
2023-02-25T13:30:34.466Z,80.20
2023-02-25T13:33:25.768Z,80.20
2023-02-25T13:36:06.948Z,78.70
2023-02-25T13:38:40.069Z,81.00
2023-02-25T13:41:48.463Z,80.70
2023-02-25T13:44:39.398Z,80.10
2023-02-25T13:47:17.931Z,79.90
2023-02-25T13:50:24.598Z,80.80
2023-02-25T13:53:20.364Z,80.60
2023-02-25T13:56:19.546Z,82.10
2023-02-25T13:59:07.248Z,80.90
2023-02-25T14:01:55.752Z,80.10
2023-02-25T14:05:16.260Z,80.50
2023-02-25T14:08:10.116Z,78.80
2023-02-25T14:10:46.886Z,79.60
2023-02-25T14:13:25.006Z,78.40
2023-02-25T14:16:18.399Z,79.70
2023-02-25T14:18:57.267Z,80.20
2023-02-25T14:22:05.529Z,80.60
2023-02-25T14:24:40.565Z,79.80
2023-02-25T14:27:41.199Z,79.20
2023-02-25T14:30:53.840Z,79.40
2023-02-25T14:33:46.482Z,78.60
2023-02-25T14:36:34.171Z,79.00
2023-02-25T14:39:15.850Z,78.50
2023-02-25T14:42:06.789Z,78.00
2023-02-25T14:44:39.535Z,77.30
2023-02-25T14:47:14.681Z,77.30
2023-02-25T14:49:56.548Z,77.80
2023-02-25T14:52:47.269Z,77.20
2023-02-25T14:55:45.984Z,77.10
2023-02-25T14:58:50.704Z,77.50
2023-02-25T15:01:39.176Z,76.50
2023-02-25T15:04:21.828Z,76.90
2023-02-25T15:07:07.460Z,76.00
2023-02-25T15:10:01.700Z,76.00
2023-02-25T15:12:46.899Z,75.40
2023-02-25T15:15:41.099Z,76.70
2023-02-25T15:18:19.587Z,75.70
2023-02-25T15:20:46.701Z,75.50
2023-02-25T15:23:19.560Z,74.70
2023-02-25T15:26:11.561Z,74.70
2023-02-25T15:28:43.774Z,76.30
2023-02-25T15:31:28.694Z,77.40
2023-02-25T15:34:22.332Z,76.70
2023-02-25T15:36:51.771Z,75.60
2023-02-25T15:39:44.083Z,76.40
2023-02-25T15:42:13.904Z,77.80
2023-02-25T15:44:45.660Z,78.10
2023-02-25T15:47:21.466Z,78.30
2023-02-25T15:49:49.795Z,77.70
2023-02-25T15:53:01.605Z,76.20
2023-02-25T15:55:35.432Z,76.10
2023-02-25T15:58:02.475Z,76.50
2023-02-25T16:00:50.192Z,76.90
2023-02-25T16:03:43.401Z,77.00
2023-02-25T16:06:40.288Z,76.20
2023-02-25T16:09:11.855Z,76.00
2023-02-25T16:11:44.865Z,77.50
2023-02-25T16:14:31.365Z,74.90
2023-02-25T16:17:17.780Z,75.80
2023-02-25T16:19:50.339Z,76.90
2023-02-25T16:22:23.979Z,75.90
2023-02-25T16:24:56.124Z,76.40
2023-02-25T16:27:33.229Z,76.70
2023-02-25T16:30:12.581Z,77.10
2023-02-25T16:32:54.746Z,76.50
2023-02-25T16:35:44.522Z,75.90
2023-02-25T16:38:32.418Z,76.50
2023-02-25T16:41:00.307Z,77.50
2023-02-25T16:43:30.025Z,77.30
2023-02-25T16:46:03.265Z,76.30
2023-02-25T16:48:34.620Z,76.70
2023-02-25T16:51:12.755Z,76.80
2023-02-25T16:53:45.444Z,78.30
2023-02-25T16:56:19.874Z,78.20
2023-02-25T16:59:21.553Z,77.40
2023-02-25T17:01:57.364Z,79.00
2023-02-25T17:04:36.230Z,80.50
2023-02-25T17:07:07.724Z,79.90
2023-02-25T17:09:35.396Z,79.90
2023-02-25T17:12:03.520Z,79.90
2023-02-25T17:14:31.075Z,80.40
2023-02-25T17:16:58.341Z,79.10
2023-02-25T17:19:25.379Z,76.60
2023-02-25T17:21:58.522Z,76.80
2023-02-25T17:24:30.934Z,74.50
2023-02-25T17:26:57.847Z,74.40
2023-02-25T17:29:34.637Z,74.00
2023-02-25T17:32:13.426Z,72.70
2023-02-25T17:34:41.283Z,73.40
2023-02-25T17:37:12.148Z,72.70
2023-02-25T17:39:40.146Z,72.20
2023-02-25T17:42:25.756Z,72.80
2023-02-25T17:44:52.338Z,73.70
2023-02-25T17:47:23.027Z,72.50
2023-02-25T17:49:50.843Z,74.00
2023-02-25T17:52:20.387Z,72.40
2023-02-25T17:54:53.538Z,73.50
2023-02-25T17:57:22.745Z,71.90
2023-02-25T17:59:56.701Z,73.30
2023-02-25T18:02:39.843Z,72.50
2023-02-25T18:05:12.203Z,72.50
2023-02-25T18:07:43.242Z,72.50
2023-02-25T18:10:27.813Z,72.70
2023-02-25T18:12:55.324Z,73.70
2023-02-25T18:15:31.341Z,72.20
2023-02-25T18:18:01.308Z,72.80
2023-02-25T18:20:36.513Z,72.10
2023-02-25T18:23:07.175Z,72.20
2023-02-25T18:25:41.161Z,71.00
2023-02-25T18:28:14.526Z,70.50
2023-02-25T18:30:43.828Z,71.10
2023-02-25T18:33:11.459Z,69.30
2023-02-25T18:35:41.080Z,72.50
2023-02-25T18:38:15.567Z,70.80
2023-02-25T18:40:42.179Z,70.40
2023-02-25T18:43:19.518Z,69.60
2023-02-25T18:45:46.458Z,69.30
2023-02-25T18:48:13.499Z,71.20
2023-02-25T18:50:44.315Z,71.40
2023-02-25T18:53:16.762Z,70.30
2023-02-25T18:55:43.367Z,70.60
2023-02-25T18:58:14.559Z,69.90
2023-02-25T19:00:42.352Z,70.50
2023-02-25T19:03:14.247Z,70.50
2023-02-25T19:05:40.888Z,70.00
2023-02-25T19:08:13.132Z,69.80
2023-02-25T19:10:39.966Z,69.00
2023-02-25T19:13:14.533Z,68.50
2023-02-25T19:15:41.233Z,68.50
2023-02-25T19:18:12.804Z,69.50
2023-02-25T19:20:39.459Z,69.20
2023-02-25T19:23:06.058Z,69.70
2023-02-25T19:25:36.143Z,69.10
2023-02-25T19:28:04.351Z,70.10
2023-02-25T19:30:34.864Z,70.30
2023-02-25T19:33:04.895Z,69.30
2023-02-25T19:35:38.618Z,69.00
2023-02-25T19:38:06.453Z,71.40
2023-02-25T19:40:33.409Z,70.20
2023-02-25T19:43:00.151Z,70.50
2023-02-25T19:45:27.153Z,70.50
2023-02-25T19:47:54.848Z,70.20
2023-02-25T19:50:24.665Z,72.30
2023-02-25T19:52:53.040Z,70.30
2023-02-25T19:55:20.137Z,70.40
2023-02-25T19:57:46.777Z,70.20
2023-02-25T20:00:18.935Z,70.80
2023-02-25T20:02:45.500Z,70.50
2023-02-25T20:05:13.019Z,70.80
2023-02-25T20:07:39.683Z,70.80
2023-02-25T20:10:10.788Z,70.30
2023-02-25T20:12:38.265Z,71.50
2023-02-25T20:15:06.836Z,71.30
2023-02-25T20:17:36.462Z,71.80
2023-02-25T20:20:04.067Z,71.00
2023-02-25T20:22:30.634Z,72.00
2023-02-25T20:24:57.170Z,71.60
2023-02-25T20:27:24.061Z,71.50
2023-02-25T20:29:50.646Z,71.80
2023-02-25T20:32:17.318Z,72.60
2023-02-25T20:34:44.095Z,72.20
2023-02-25T20:37:21.006Z,72.70
2023-02-25T20:39:53.328Z,72.60
2023-02-25T20:42:25.221Z,73.50
2023-02-25T20:44:52.868Z,73.20
2023-02-25T20:47:28.410Z,73.10
2023-02-25T20:49:56.032Z,73.60
2023-02-25T20:52:24.257Z,73.60
2023-02-25T20:54:50.834Z,73.80
2023-02-25T20:57:19.682Z,75.10
2023-02-25T20:59:48.085Z,73.80
2023-02-25T21:02:15.818Z,73.80
2023-02-25T21:04:43.657Z,73.80
2023-02-25T21:07:10.718Z,73.80
2023-02-25T21:09:37.327Z,74.20
2023-02-25T21:12:04.119Z,74.50
2023-02-25T21:14:30.840Z,75.50
2023-02-25T21:16:57.506Z,75.70
2023-02-25T21:19:26.324Z,76.10
2023-02-25T21:21:52.911Z,74.70
2023-02-25T21:24:20.091Z,74.80
2023-02-25T21:26:46.804Z,75.40
2023-02-25T21:29:14.085Z,75.80
2023-02-25T21:31:40.872Z,75.10
2023-02-25T21:34:09.047Z,75.40
2023-02-25T21:36:35.826Z,75.30
2023-02-25T21:39:03.419Z,75.30
2023-02-25T21:41:30.107Z,74.90
2023-02-25T21:43:57.132Z,74.70
2023-02-25T21:46:24.577Z,74.70
2023-02-25T21:48:53.094Z,75.60
2023-02-25T21:51:22.221Z,75.20
2023-02-25T21:53:52.824Z,74.70
2023-02-25T21:56:19.426Z,75.20
2023-02-25T21:58:46.081Z,76.00
2023-02-25T22:01:18.716Z,75.70
2023-02-25T22:03:46.137Z,76.20
2023-02-25T22:06:12.972Z,76.40
2023-02-25T22:08:40.804Z,74.90
2023-02-25T22:11:19.304Z,75.60
2023-02-25T22:13:46.053Z,76.00
2023-02-25T22:16:14.603Z,75.00
2023-02-25T22:18:41.784Z,74.90
2023-02-25T22:21:15.642Z,75.50
2023-02-25T22:23:45.597Z,75.50
2023-02-25T22:26:15.332Z,75.70
2023-02-25T22:28:43.185Z,75.60
2023-02-25T22:31:12.915Z,76.20
2023-02-25T22:33:39.706Z,75.80
2023-02-25T22:36:07.532Z,76.20
2023-02-25T22:38:36.925Z,76.00
2023-02-25T22:41:05.130Z,76.40
2023-02-25T22:43:32.869Z,76.60
2023-02-25T22:46:11.257Z,77.20
2023-02-25T22:48:39.792Z,76.90
2023-02-25T22:51:09.289Z,77.00
2023-02-25T22:53:40.288Z,77.00
2023-02-25T22:56:09.738Z,77.90
2023-02-25T22:58:38.742Z,77.70
2023-02-25T23:01:06.258Z,77.70
2023-02-25T23:03:32.872Z,78.00
2023-02-25T23:06:00.111Z,77.90
2023-02-25T23:08:27.211Z,78.50
2023-02-25T23:10:54.417Z,79.00
2023-02-25T23:13:21.008Z,79.30
2023-02-25T23:15:47.827Z,79.10
2023-02-25T23:18:15.694Z,79.40
2023-02-25T23:20:42.786Z,79.80
2023-02-25T23:23:09.514Z,80.10
2023-02-25T23:25:39.688Z,80.50
2023-02-25T23:28:08.389Z,80.50
2023-02-25T23:30:38.843Z,80.70
2023-02-25T23:33:06.267Z,80.70
2023-02-25T23:35:33.608Z,80.90
2023-02-25T23:38:00.749Z,80.90
2023-02-25T23:40:28.754Z,81.40
2023-02-25T23:42:55.556Z,81.50
2023-02-25T23:45:22.208Z,81.30
2023-02-25T23:47:48.747Z,82.20
2023-02-25T23:50:16.677Z,82.10
2023-02-25T23:52:44.985Z,82.50
2023-02-25T23:55:13.054Z,83.50
2023-02-25T23:57:40.218Z,84.00
